createdAt,value
2023-05-09T00:02:21.059Z,6.10
2023-05-09T00:04:49.407Z,6.37
2023-05-09T00:07:17.748Z,6.20
2023-05-09T00:09:46.113Z,6.00
2023-05-09T00:12:14.449Z,7.10
2023-05-09T00:14:45.464Z,6.90
2023-05-09T00:17:15.825Z,7.30
2023-05-09T00:19:44.668Z,6.33
2023-05-09T00:22:13.599Z,6.97
2023-05-09T00:24:41.930Z,7.17
2023-05-09T00:27:11.006Z,6.53
2023-05-09T00:29:39.595Z,6.00
2023-05-09T00:32:09.329Z,6.17
2023-05-09T00:34:37.877Z,6.43
2023-05-09T00:37:07.121Z,6.40
2023-05-09T00:39:35.451Z,6.70
2023-05-09T00:42:04.853Z,6.57
2023-05-09T00:44:33.212Z,6.70
2023-05-09T00:47:01.582Z,6.77
2023-05-09T00:49:31.494Z,6.90
2023-05-09T00:51:59.981Z,5.73
2023-05-09T00:54:28.334Z,6.93
2023-05-09T00:56:56.790Z,6.70
2023-05-09T00:59:25.355Z,6.57
2023-05-09T01:01:53.693Z,6.73
2023-05-09T01:04:22.052Z,7.20
2023-05-09T01:07:05.362Z,10.27
2023-05-09T01:09:38.947Z,10.03
2023-05-09T01:12:15.045Z,7.43
2023-05-09T01:14:53.252Z,6.70
2023-05-09T01:17:32.668Z,7.03
2023-05-09T01:20:11.159Z,5.80
2023-05-09T01:22:44.582Z,6.50
2023-05-09T01:25:48.409Z,6.73
2023-05-09T01:28:27.330Z,7.07
2023-05-09T01:30:57.766Z,7.80
2023-05-09T01:33:29.192Z,8.23
2023-05-09T01:36:03.417Z,7.50
2023-05-09T01:38:33.268Z,6.63
2023-05-09T01:41:05.369Z,6.00
2023-05-09T01:43:35.658Z,6.17
2023-05-09T01:46:06.939Z,6.53
2023-05-09T01:48:37.346Z,6.47
2023-05-09T01:51:06.574Z,6.43
2023-05-09T01:53:36.107Z,6.10
2023-05-09T01:56:06.977Z,6.50
2023-05-09T01:58:35.710Z,5.87
2023-05-09T02:01:06.594Z,5.97
2023-05-09T02:03:37.381Z,6.03
2023-05-09T02:06:07.059Z,5.90
2023-05-09T02:08:35.706Z,6.10
2023-05-09T02:11:04.146Z,6.10
2023-05-09T02:13:35.268Z,6.30
2023-05-09T02:16:06.008Z,6.50
2023-05-09T02:18:34.411Z,6.27
2023-05-09T02:21:03.022Z,6.43
2023-05-09T02:23:31.923Z,6.77
2023-05-09T02:26:00.354Z,6.17
2023-05-09T02:28:29.830Z,6.53
2023-05-09T02:31:02.078Z,6.63
2023-05-09T02:33:32.404Z,6.10
2023-05-09T02:36:01.770Z,5.90
2023-05-09T02:38:30.055Z,6.63
2023-05-09T02:40:58.358Z,5.90
2023-05-09T02:43:28.332Z,5.87
2023-05-09T02:45:56.827Z,6.60
2023-05-09T02:48:25.394Z,6.37
2023-05-09T02:50:55.078Z,6.50
2023-05-09T02:53:23.485Z,6.27
2023-05-09T02:55:51.815Z,7.43
2023-05-09T02:58:20.156Z,7.40
2023-05-09T03:00:48.626Z,7.60
2023-05-09T03:03:19.103Z,8.23
2023-05-09T03:05:47.738Z,7.37
2023-05-09T03:08:17.369Z,7.53
2023-05-09T03:10:45.956Z,7.23
2023-05-09T03:13:14.798Z,6.70
2023-05-09T03:15:43.121Z,6.20
2023-05-09T03:18:13.999Z,6.90
2023-05-09T03:20:42.385Z,7.20
2023-05-09T03:23:11.159Z,7.13
2023-05-09T03:25:41.985Z,6.70
2023-05-09T03:28:10.428Z,6.90
2023-05-09T03:30:38.912Z,6.80
2023-05-09T03:33:11.113Z,7.40
2023-05-09T03:35:39.516Z,6.40
2023-05-09T03:38:08.711Z,6.60
2023-05-09T03:40:37.039Z,6.87
2023-05-09T03:43:10.847Z,6.03
2023-05-09T03:45:39.545Z,6.27
2023-05-09T03:48:11.410Z,6.93
2023-05-09T03:50:45.188Z,6.30
2023-05-09T03:53:14.915Z,7.00
2023-05-09T03:55:45.221Z,6.80
2023-05-09T03:58:16.654Z,6.40
2023-05-09T04:00:46.745Z,6.20
2023-05-09T04:03:22.572Z,6.20
2023-05-09T04:05:53.152Z,6.77
2023-05-09T04:08:41.763Z,7.03
2023-05-09T04:11:10.168Z,6.67
2023-05-09T04:13:42.076Z,6.83
2023-05-09T04:16:23.287Z,6.67
2023-05-09T04:18:51.682Z,6.30
2023-05-09T04:21:19.975Z,6.90
2023-05-09T04:23:51.566Z,6.60
2023-05-09T04:26:24.801Z,6.13
2023-05-09T04:28:57.585Z,6.50
2023-05-09T04:31:26.644Z,5.60
2023-05-09T04:33:55.558Z,6.07
2023-05-09T04:36:24.142Z,6.63
2023-05-09T04:38:52.449Z,5.70
2023-05-09T04:41:25.549Z,6.23
2023-05-09T04:43:53.879Z,6.03
2023-05-09T04:46:25.732Z,6.10
2023-05-09T04:48:54.438Z,6.33
2023-05-09T04:51:22.807Z,6.00
2023-05-09T04:53:52.661Z,6.03
2023-05-09T04:56:24.416Z,6.27
2023-05-09T04:58:52.869Z,6.30
2023-05-09T05:01:21.373Z,6.43
2023-05-09T05:03:52.394Z,6.93
2023-05-09T05:06:20.957Z,6.40
2023-05-09T05:08:49.289Z,7.10
2023-05-09T05:11:17.974Z,7.07
2023-05-09T05:13:47.214Z,6.17
2023-05-09T05:16:15.701Z,6.77
2023-05-09T05:18:44.064Z,5.90
2023-05-09T05:21:13.852Z,6.50
2023-05-09T05:23:42.762Z,6.10
2023-05-09T05:26:11.979Z,6.80
2023-05-09T05:28:40.506Z,6.33
2023-05-09T05:31:09.033Z,6.40
2023-05-09T05:33:38.042Z,6.20
2023-05-09T05:36:07.223Z,6.67
2023-05-09T05:38:37.132Z,7.00
2023-05-09T05:41:05.794Z,7.23
2023-05-09T05:43:35.429Z,7.40
2023-05-09T05:46:04.911Z,7.07
2023-05-09T05:48:35.298Z,6.83
2023-05-09T05:51:03.995Z,6.57
2023-05-09T05:53:33.695Z,6.10
2023-05-09T05:56:03.446Z,6.60
2023-05-09T05:58:33.706Z,6.97
2023-05-09T06:01:02.137Z,6.77
2023-05-09T06:03:32.556Z,7.90
2023-05-09T06:06:04.250Z,7.77
2023-05-09T06:08:33.454Z,8.70
2023-05-09T06:11:03.528Z,8.90
2023-05-09T06:13:32.020Z,8.17
2023-05-09T06:16:18.752Z,8.80
2023-05-09T06:18:50.163Z,9.30
2023-05-09T06:21:18.604Z,9.33
2023-05-09T06:24:05.124Z,9.90
2023-05-09T06:26:37.322Z,9.57
2023-05-09T06:29:06.357Z,9.70
2023-05-09T06:31:38.427Z,9.77
2023-05-09T06:34:07.165Z,9.63
2023-05-09T06:36:35.916Z,9.73
2023-05-09T06:39:04.424Z,10.20
2023-05-09T06:41:32.940Z,10.17
2023-05-09T06:44:03.251Z,9.70
2023-05-09T06:46:31.570Z,10.17
2023-05-09T06:49:01.769Z,10.10
2023-05-09T06:51:31.126Z,9.17
2023-05-09T06:53:59.499Z,10.50
2023-05-09T06:56:27.912Z,11.23
2023-05-09T06:58:56.262Z,10.40
2023-05-09T07:01:26.027Z,11.60
2023-05-09T07:03:54.393Z,10.97
2023-05-09T07:06:22.754Z,10.50
2023-05-09T07:08:51.041Z,10.63
2023-05-09T07:11:19.609Z,10.50
2023-05-09T07:13:47.926Z,12.20
2023-05-09T07:16:18.023Z,12.63
2023-05-09T07:18:48.575Z,11.60
2023-05-09T07:21:17.118Z,11.00
2023-05-09T07:23:46.203Z,11.93
2023-05-09T07:26:14.691Z,13.20
2023-05-09T07:28:43.073Z,13.77
2023-05-09T07:31:11.419Z,14.30
2023-05-09T07:33:39.759Z,15.13
2023-05-09T07:36:13.137Z,13.70
2023-05-09T07:38:41.531Z,13.37
2023-05-09T07:41:09.939Z,12.03
2023-05-09T07:43:38.365Z,10.73
2023-05-09T07:46:07.800Z,10.70
2023-05-09T07:48:36.429Z,12.13
2023-05-09T07:51:04.841Z,11.47
2023-05-09T07:53:34.569Z,11.97
2023-05-09T07:56:02.930Z,12.73
2023-05-09T07:58:31.252Z,10.53
2023-05-09T08:01:00.179Z,9.67
2023-05-09T08:03:28.521Z,10.10
2023-05-09T08:05:57.192Z,10.77
2023-05-09T08:08:25.827Z,11.37
2023-05-09T08:10:55.527Z,11.97
2023-05-09T08:13:23.997Z,11.70
2023-05-09T08:15:52.398Z,12.63
2023-05-09T08:18:20.990Z,13.70
2023-05-09T08:20:49.354Z,14.10
2023-05-09T08:23:17.662Z,12.20
2023-05-09T08:25:46.009Z,12.40
2023-05-09T08:28:15.755Z,11.90
2023-05-09T08:30:44.096Z,11.57
2023-05-09T08:33:12.452Z,11.20
2023-05-09T08:35:40.890Z,11.40
2023-05-09T08:38:09.203Z,11.13
2023-05-09T08:40:38.077Z,10.73
2023-05-09T08:43:08.627Z,10.53
2023-05-09T08:45:46.950Z,10.50
2023-05-09T08:48:17.392Z,11.43
2023-05-09T08:50:46.384Z,10.20
2023-05-09T08:53:16.231Z,10.77
2023-05-09T08:55:45.919Z,10.53
2023-05-09T08:58:16.774Z,11.00
2023-05-09T09:00:47.221Z,10.57
2023-05-09T09:03:16.330Z,9.67
2023-05-09T09:05:46.243Z,10.80
2023-05-09T09:08:15.410Z,13.30
2023-05-09T09:10:47.430Z,12.27
2023-05-09T09:13:18.060Z,11.37
2023-05-09T09:15:49.940Z,12.20
2023-05-09T09:18:23.204Z,10.87
2023-05-09T09:20:57.626Z,11.80
2023-05-09T09:23:27.238Z,9.90
2023-05-09T09:26:00.239Z,11.20
2023-05-09T09:28:29.486Z,9.93
2023-05-09T09:30:59.337Z,11.40
2023-05-09T09:33:29.812Z,9.00
2023-05-09T09:35:59.360Z,11.70
2023-05-09T09:38:27.987Z,11.23
2023-05-09T09:40:57.071Z,9.70
2023-05-09T09:43:29.325Z,11.50
2023-05-09T09:46:01.997Z,12.90
2023-05-09T09:48:34.765Z,10.10
2023-05-09T09:51:11.406Z,11.97
2023-05-09T09:53:43.516Z,11.13
2023-05-09T09:56:12.176Z,11.67
2023-05-09T09:58:40.846Z,11.57
2023-05-09T10:01:13.970Z,12.97
2023-05-09T10:03:44.295Z,12.00
2023-05-09T10:06:13.551Z,12.37
2023-05-09T10:08:42.212Z,12.03
2023-05-09T10:11:10.952Z,11.73
2023-05-09T10:13:39.561Z,12.37
2023-05-09T10:16:12.563Z,11.70
2023-05-09T10:18:43.467Z,11.83
2023-05-09T10:21:15.013Z,11.60
2023-05-09T10:23:47.141Z,10.07
2023-05-09T10:26:18.738Z,11.33
2023-05-09T10:28:49.825Z,12.93
2023-05-09T10:31:24.334Z,11.33
2023-05-09T10:33:52.991Z,10.63
2023-05-09T10:36:23.898Z,10.90
2023-05-09T10:38:54.938Z,10.87
2023-05-09T10:41:24.177Z,10.17
2023-05-09T10:43:53.236Z,10.73
2023-05-09T10:46:23.958Z,10.80
2023-05-09T10:48:52.666Z,9.90
2023-05-09T10:51:21.636Z,8.07
2023-05-09T10:53:51.626Z,8.47
2023-05-09T10:56:27.612Z,7.57
2023-05-09T10:58:56.547Z,8.50
2023-05-09T11:01:35.338Z,8.50
2023-05-09T11:04:11.076Z,7.60
2023-05-09T11:06:46.338Z,8.90
2023-05-09T11:09:33.494Z,10.47
2023-05-09T11:12:09.896Z,9.60
2023-05-09T11:14:46.324Z,10.80
2023-05-09T11:17:29.630Z,10.17
2023-05-09T11:20:05.602Z,9.73
2023-05-09T11:22:41.508Z,10.40
2023-05-09T11:25:12.662Z,10.13
2023-05-09T11:27:44.448Z,10.50
2023-05-09T11:30:16.835Z,12.83
2023-05-09T11:32:48.600Z,11.87
2023-05-09T11:35:20.321Z,11.30
2023-05-09T11:37:50.642Z,12.20
2023-05-09T11:40:20.367Z,11.73
2023-05-09T11:42:54.687Z,11.27
2023-05-09T11:45:26.930Z,11.20
2023-05-09T11:47:57.498Z,10.80
2023-05-09T11:50:26.338Z,12.30
2023-05-09T11:52:55.267Z,10.57
2023-05-09T11:55:25.526Z,11.00
2023-05-09T11:57:55.293Z,10.33
2023-05-09T12:00:25.038Z,9.93
2023-05-09T12:02:54.315Z,9.93
2023-05-09T12:05:24.711Z,9.90
2023-05-09T12:07:53.415Z,11.27
2023-05-09T12:10:23.953Z,9.57
2023-05-09T12:12:55.559Z,10.00
2023-05-09T12:15:24.543Z,11.20
2023-05-09T12:18:03.905Z,10.20
2023-05-09T12:20:43.433Z,10.53
2023-05-09T12:23:12.781Z,9.90
2023-05-09T12:25:41.854Z,8.50
2023-05-09T12:28:10.949Z,9.60
2023-05-09T12:30:39.474Z,9.20
2023-05-09T12:33:10.934Z,8.03
2023-05-09T12:35:39.536Z,10.83
2023-05-09T12:38:09.285Z,10.80
2023-05-09T12:40:37.685Z,11.30
2023-05-09T12:43:06.232Z,9.40
2023-05-09T12:45:34.808Z,9.03
2023-05-09T12:48:04.750Z,8.10
2023-05-09T12:50:35.534Z,8.10
2023-05-09T12:53:05.289Z,6.77
2023-05-09T12:55:41.045Z,8.23
2023-05-09T12:58:09.427Z,7.47
2023-05-09T13:00:44.659Z,6.30
2023-05-09T13:03:25.307Z,7.87
2023-05-09T13:05:58.037Z,7.70
2023-05-09T13:08:26.661Z,7.40
2023-05-09T13:11:08.014Z,7.20
2023-05-09T13:13:43.842Z,7.20
2023-05-09T13:16:14.913Z,6.90
2023-05-09T13:18:45.079Z,6.47
2023-05-09T13:21:13.495Z,7.10
2023-05-09T13:23:44.204Z,7.60
2023-05-09T13:26:14.124Z,7.20
2023-05-09T13:28:42.537Z,6.73
2023-05-09T13:31:11.028Z,7.53
2023-05-09T13:33:39.720Z,6.83
2023-05-09T13:36:08.437Z,6.70
2023-05-09T13:38:40.478Z,6.10
2023-05-09T13:41:09.232Z,6.77
2023-05-09T13:43:40.335Z,7.20
2023-05-09T13:46:08.936Z,7.10
2023-05-09T13:48:37.781Z,6.43
2023-05-09T13:51:07.908Z,5.90
2023-05-09T13:53:38.668Z,6.20
2023-05-09T13:56:09.392Z,5.87
2023-05-09T13:58:39.269Z,6.33
2023-05-09T14:01:07.819Z,6.80
2023-05-09T14:03:36.437Z,7.93
2023-05-09T14:06:05.365Z,5.77
2023-05-09T14:08:33.724Z,6.80
2023-05-09T14:11:02.989Z,6.70
2023-05-09T14:13:32.054Z,6.97
2023-05-09T14:16:02.078Z,8.17
2023-05-09T14:18:30.512Z,7.70
2023-05-09T14:20:59.034Z,8.47
2023-05-09T14:23:27.610Z,7.53
2023-05-09T14:25:55.991Z,8.93
2023-05-09T14:28:24.342Z,7.93
2023-05-09T14:30:52.925Z,9.00
2023-05-09T14:33:22.813Z,8.10
2023-05-09T14:35:51.278Z,10.43
2023-05-09T14:38:19.899Z,8.47
2023-05-09T14:40:49.372Z,8.97
2023-05-09T14:43:17.742Z,8.93
2023-05-09T14:45:46.051Z,8.70
2023-05-09T14:48:16.162Z,8.30
2023-05-09T14:50:46.012Z,7.93
2023-05-09T14:53:14.556Z,8.07
2023-05-09T14:55:42.962Z,7.37
2023-05-09T14:58:13.385Z,8.53
2023-05-09T15:00:41.957Z,8.50
2023-05-09T15:03:10.870Z,8.47
2023-05-09T15:05:39.540Z,8.23
2023-05-09T15:08:09.691Z,7.60
2023-05-09T15:10:38.062Z,8.13
2023-05-09T15:13:06.442Z,8.13
2023-05-09T15:15:35.008Z,7.53
2023-05-09T15:18:03.416Z,7.73
2023-05-09T15:20:31.758Z,7.33
2023-05-09T15:23:00.174Z,6.77
2023-05-09T15:25:29.979Z,6.57
2023-05-09T15:27:59.392Z,6.67
2023-05-09T15:30:27.925Z,6.67
2023-05-09T15:32:56.744Z,6.50
2023-05-09T15:35:25.184Z,7.67
2023-05-09T15:37:53.798Z,8.10
2023-05-09T15:40:22.188Z,8.00
2023-05-09T15:42:51.985Z,7.17
2023-05-09T15:45:20.543Z,7.40
2023-05-09T15:47:48.987Z,6.90
2023-05-09T15:50:17.796Z,7.17
2023-05-09T15:52:46.387Z,7.33
2023-05-09T15:55:15.124Z,6.93
2023-05-09T15:57:45.201Z,6.50
2023-05-09T16:00:17.546Z,6.40
2023-05-09T16:02:46.583Z,7.43
2023-05-09T16:05:15.019Z,6.50
2023-05-09T16:07:45.894Z,7.30
2023-05-09T16:10:14.623Z,6.67
2023-05-09T16:12:43.324Z,6.60
2023-05-09T16:15:12.694Z,5.97
2023-05-09T16:17:43.515Z,5.57
2023-05-09T16:20:14.495Z,5.23
2023-05-09T16:22:45.898Z,5.17
2023-05-09T16:25:14.218Z,5.80
2023-05-09T16:27:42.586Z,5.47
2023-05-09T16:30:11.857Z,5.37
2023-05-09T16:32:40.220Z,5.70
2023-05-09T16:35:10.646Z,5.23
2023-05-09T16:37:38.992Z,5.50
2023-05-09T16:40:08.531Z,4.70
2023-05-09T16:42:36.876Z,5.63
2023-05-09T16:45:05.815Z,5.40
2023-05-09T16:47:34.201Z,5.13
2023-05-09T16:50:02.642Z,5.00
2023-05-09T16:52:32.410Z,5.27
2023-05-09T16:55:00.880Z,4.77
2023-05-09T16:57:29.214Z,4.80
2023-05-09T16:59:58.543Z,5.03
2023-05-09T17:02:27.595Z,5.00
2023-05-09T17:04:56.302Z,4.13
2023-05-09T17:07:24.699Z,5.10
2023-05-09T17:09:54.395Z,5.60
2023-05-09T17:12:22.820Z,4.90
2023-05-09T17:14:51.242Z,4.90
2023-05-09T17:17:19.572Z,5.67
2023-05-09T17:19:51.195Z,4.67
2023-05-09T17:22:19.616Z,4.30
2023-05-09T17:24:47.933Z,4.47
2023-05-09T17:27:17.935Z,5.23
2023-05-09T17:29:46.328Z,4.37
2023-05-09T17:32:15.599Z,4.97
2023-05-09T17:34:44.039Z,4.43
2023-05-09T17:37:12.587Z,4.00
2023-05-09T17:39:42.586Z,4.40
2023-05-09T17:42:12.736Z,5.00
2023-05-09T17:44:44.279Z,4.90
2023-05-09T17:47:14.266Z,5.50
2023-05-09T17:49:42.697Z,4.53
2023-05-09T17:52:11.061Z,4.40
2023-05-09T17:54:39.471Z,4.30
2023-05-09T17:57:07.912Z,5.03
2023-05-09T17:59:40.371Z,5.40
2023-05-09T18:02:10.096Z,5.60
2023-05-09T18:04:38.424Z,4.90
2023-05-09T18:07:06.721Z,4.90
2023-05-09T18:09:35.011Z,5.17
2023-05-09T18:12:03.579Z,5.53
2023-05-09T18:14:31.915Z,4.03
2023-05-09T18:17:00.262Z,5.07
2023-05-09T18:19:29.913Z,5.23
2023-05-09T18:21:58.275Z,5.27
2023-05-09T18:24:26.615Z,5.20
2023-05-09T18:26:54.978Z,5.10
2023-05-09T18:29:42.251Z,4.90
2023-05-09T18:32:12.038Z,4.00
2023-05-09T18:34:41.779Z,4.50
2023-05-09T18:37:11.657Z,4.70
2023-05-09T18:39:39.974Z,4.73
2023-05-09T18:42:08.331Z,4.13
2023-05-09T18:44:36.656Z,4.50
2023-05-09T18:47:05.044Z,4.60
2023-05-09T18:49:33.451Z,5.20
2023-05-09T18:52:03.567Z,4.73
2023-05-09T18:54:31.958Z,3.87
2023-05-09T18:57:00.311Z,4.43
2023-05-09T18:59:28.768Z,5.00
2023-05-09T19:01:57.126Z,4.67
2023-05-09T19:04:25.730Z,4.80
2023-05-09T19:06:54.150Z,3.93
2023-05-09T19:09:23.896Z,4.80
2023-05-09T19:11:52.302Z,4.97
2023-05-09T19:14:20.736Z,4.63
2023-05-09T19:16:49.059Z,4.23
2023-05-09T19:19:17.628Z,4.80
2023-05-09T19:21:46.758Z,5.10
2023-05-09T19:24:16.393Z,4.40
2023-05-09T19:26:46.281Z,4.30
2023-05-09T19:29:14.645Z,4.87
2023-05-09T19:31:42.979Z,4.60
2023-05-09T19:34:11.481Z,4.40
2023-05-09T19:36:39.878Z,4.93
2023-05-09T19:39:09.068Z,4.83
2023-05-09T19:41:37.478Z,5.10
2023-05-09T19:44:07.991Z,5.43
2023-05-09T19:46:38.465Z,5.00
2023-05-09T19:49:07.266Z,5.10
2023-05-09T19:51:35.585Z,5.00
2023-05-09T19:54:03.989Z,4.73
2023-05-09T19:56:32.553Z,4.60
2023-05-09T19:59:00.872Z,5.00
2023-05-09T20:01:30.582Z,5.17
2023-05-09T20:03:58.956Z,5.43
2023-05-09T20:06:27.286Z,4.67
2023-05-09T20:08:55.609Z,5.50
2023-05-09T20:11:23.932Z,5.17
2023-05-09T20:13:52.216Z,4.93
2023-05-09T20:16:21.330Z,4.67
2023-05-09T20:18:52.274Z,5.20
2023-05-09T20:21:20.672Z,4.93
2023-05-09T20:23:48.988Z,5.17
2023-05-09T20:26:17.353Z,5.23
2023-05-09T20:28:45.681Z,4.90
2023-05-09T20:31:14.064Z,5.07
2023-05-09T20:33:42.432Z,4.63
2023-05-09T20:36:12.169Z,5.50
2023-05-09T20:38:40.404Z,4.77
2023-05-09T20:41:08.723Z,4.70
2023-05-09T20:43:37.053Z,5.60
2023-05-09T20:46:05.393Z,5.70
2023-05-09T20:48:33.725Z,5.43
2023-05-09T20:51:01.975Z,4.60
2023-05-09T20:53:32.481Z,5.90
2023-05-09T20:56:01.055Z,5.27
2023-05-09T20:58:31.175Z,5.40
2023-05-09T21:00:59.767Z,5.67
2023-05-09T21:03:28.132Z,5.27
2023-05-09T21:05:56.485Z,4.60
2023-05-09T21:08:24.809Z,5.30
2023-05-09T21:10:54.680Z,5.30
2023-05-09T21:13:23.058Z,5.10
2023-05-09T21:15:51.615Z,5.80
2023-05-09T21:18:21.320Z,4.87
2023-05-09T21:20:49.585Z,5.17
2023-05-09T21:23:18.493Z,5.07
2023-05-09T21:25:47.015Z,4.80
2023-05-09T21:28:17.398Z,5.30
2023-05-09T21:30:50.881Z,4.90
2023-05-09T21:33:19.343Z,5.27
2023-05-09T21:35:48.006Z,5.00
2023-05-09T21:38:16.280Z,5.13
2023-05-09T21:40:47.091Z,4.97
2023-05-09T21:43:18.216Z,5.60
2023-05-09T21:45:46.669Z,5.87
2023-05-09T21:48:14.948Z,5.93
2023-05-09T21:50:46.007Z,6.50
2023-05-09T21:53:14.274Z,6.03
2023-05-09T21:55:42.479Z,6.30
2023-05-09T21:58:10.833Z,6.70
2023-05-09T22:00:40.538Z,6.33
2023-05-09T22:03:09.039Z,5.60
2023-05-09T22:05:37.271Z,6.23
2023-05-09T22:08:05.930Z,5.63
2023-05-09T22:10:34.234Z,6.07
2023-05-09T22:13:02.601Z,6.67
2023-05-09T22:15:30.892Z,6.90
2023-05-09T22:18:01.220Z,6.80
2023-05-09T22:20:29.654Z,7.00
2023-05-09T22:22:57.889Z,6.27
2023-05-09T22:25:26.357Z,6.57
2023-05-09T22:27:55.422Z,7.00
2023-05-09T22:30:24.085Z,6.80
2023-05-09T22:32:52.377Z,6.77
2023-05-09T22:35:22.028Z,7.10
2023-05-09T22:37:50.790Z,7.97
2023-05-09T22:40:19.196Z,7.63
2023-05-09T22:42:48.075Z,8.30
2023-05-09T22:45:16.356Z,8.20
2023-05-09T22:47:44.690Z,7.53
2023-05-09T22:50:13.935Z,8.60
2023-05-09T22:52:43.694Z,8.73
2023-05-09T22:55:12.152Z,8.40
2023-05-09T22:57:41.357Z,9.20
2023-05-09T23:00:10.773Z,8.43
2023-05-09T23:02:39.315Z,10.13
2023-05-09T23:05:08.821Z,10.23
2023-05-09T23:07:37.183Z,9.20
2023-05-09T23:10:07.454Z,9.87
2023-05-09T23:12:35.793Z,9.80
2023-05-09T23:15:04.111Z,9.00
2023-05-09T23:17:32.581Z,9.27
2023-05-09T23:20:01.676Z,9.67
2023-05-09T23:22:30.040Z,10.37
2023-05-09T23:24:59.695Z,9.67
2023-05-09T23:27:31.261Z,9.23
2023-05-09T23:29:59.629Z,10.23
2023-05-09T23:32:28.248Z,9.50
2023-05-09T23:34:56.607Z,9.83
2023-05-09T23:37:24.989Z,9.37
2023-05-09T23:39:53.296Z,10.50
2023-05-09T23:42:21.658Z,10.70
2023-05-09T23:44:51.414Z,9.40
2023-05-09T23:47:19.750Z,9.83
2023-05-09T23:49:48.029Z,9.87
2023-05-09T23:52:16.509Z,10.70
2023-05-09T23:54:44.837Z,9.47
2023-05-09T23:57:13.159Z,10.53
2023-05-09T23:59:42.185Z,12.13
